Cygnet Bay, Australia
Current Conditions -  °F | °C
As of 4:30 PM on Friday 24 Oct 2014 (Local Time) from YCIN Reporting Station
Clear Clear  
Wind Chill: 95°   Ceiling: Unl
Heat Index: 101°   Visibility: NA
Dew Point: 70°   Wind: 10mph
Humidity: 44%   Direction: 330°NNW
Pressure: 29.77"   Gusts: NA
Location:  16.44°S, 123.01°E
Report Text: YCIN 240830Z AUTO 33009KT //// // NCD 35/21 Q1008
Loading
Personal Weather Stations






























Interactive Weather Map
Tropical Storm Tracking
New forecast layout! Learn more

10-Day Weather Forecast

Advertisements
Track Severe Weather on mobile